createdAt,value
2024-01-28T00:01:55.254Z,91.60
2024-01-28T00:04:24.878Z,91.60
2024-01-28T00:06:53.131Z,91.70
2024-01-28T00:09:21.301Z,91.50
2024-01-28T00:11:49.444Z,91.20
2024-01-28T00:14:17.565Z,91.10
2024-01-28T00:16:45.981Z,91.10
2024-01-28T00:19:14.477Z,91.30
2024-01-28T00:21:44.153Z,91.50
2024-01-28T00:24:12.430Z,91.70
2024-01-28T00:26:40.960Z,91.90
2024-01-28T00:29:09.469Z,92.00
2024-01-28T00:31:37.642Z,92.10
2024-01-28T00:34:06.045Z,91.80
2024-01-28T00:36:34.267Z,91.80
2024-01-28T00:39:04.552Z,91.90
2024-01-28T00:41:34.732Z,91.80
2024-01-28T00:44:04.530Z,92.00
2024-01-28T00:46:33.492Z,92.10
2024-01-28T00:49:02.884Z,92.20
2024-01-28T00:51:31.257Z,92.20
2024-01-28T00:53:59.651Z,92.30
2024-01-28T00:56:29.268Z,92.30
2024-01-28T00:58:57.620Z,92.30
2024-01-28T01:01:25.745Z,92.20
2024-01-28T01:03:53.947Z,92.00
2024-01-28T01:06:22.585Z,92.10
2024-01-28T01:08:51.027Z,91.90
2024-01-28T01:11:19.878Z,92.10
2024-01-28T01:13:49.335Z,92.10
2024-01-28T01:16:18.527Z,92.20
2024-01-28T01:18:46.630Z,92.10
2024-01-28T01:21:14.772Z,91.80
2024-01-28T01:23:43.027Z,91.80
2024-01-28T01:26:11.249Z,91.90
2024-01-28T01:28:39.385Z,92.20
2024-01-28T01:31:08.874Z,92.10
2024-01-28T01:33:37.123Z,92.40
2024-01-28T01:36:06.806Z,92.40
2024-01-28T01:38:34.904Z,92.50
2024-01-28T01:41:03.254Z,92.60
2024-01-28T01:43:31.563Z,92.60
2024-01-28T01:46:00.080Z,92.60
2024-01-28T01:48:29.721Z,92.60
2024-01-28T01:50:58.452Z,92.70
2024-01-28T01:53:26.981Z,92.70
2024-01-28T01:55:55.735Z,92.70
2024-01-28T01:58:25.162Z,92.50
2024-01-28T02:00:53.458Z,92.60
2024-01-28T02:03:22.404Z,92.70
2024-01-28T02:05:52.165Z,92.80
2024-01-28T02:08:20.482Z,92.80
2024-01-28T02:10:48.857Z,92.90
2024-01-28T02:13:16.979Z,92.90
2024-01-28T02:15:45.298Z,93.00
2024-01-28T02:18:14.003Z,93.10
2024-01-28T02:20:43.333Z,93.10
2024-01-28T02:23:17.938Z,93.00
2024-01-28T02:25:47.530Z,93.10
2024-01-28T02:28:15.813Z,92.90
2024-01-28T02:30:44.196Z,93.00
2024-01-28T02:33:12.594Z,93.10
2024-01-28T02:35:40.770Z,93.10
2024-01-28T02:38:08.888Z,92.90
2024-01-28T02:40:37.248Z,92.80
2024-01-28T02:43:07.099Z,92.70
2024-01-28T02:45:35.605Z,92.90
2024-01-28T02:48:04.215Z,92.90
2024-01-28T02:50:32.486Z,93.00
2024-01-28T02:53:00.568Z,93.10
2024-01-28T02:55:28.630Z,93.00
2024-01-28T02:57:56.761Z,93.10
2024-01-28T03:00:26.546Z,93.10
2024-01-28T03:02:54.878Z,93.20
2024-01-28T03:05:23.029Z,93.10
2024-01-28T03:07:51.082Z,93.20
2024-01-28T03:10:19.153Z,93.20
2024-01-28T03:12:50.729Z,93.10
2024-01-28T03:15:19.248Z,93.00
2024-01-28T03:17:48.939Z,92.90
2024-01-28T03:20:19.479Z,92.90
2024-01-28T03:22:47.580Z,92.70
2024-01-28T03:25:16.690Z,92.50
2024-01-28T03:27:44.989Z,92.40
2024-01-28T03:30:13.426Z,92.30
2024-01-28T03:32:43.846Z,92.20
2024-01-28T03:35:14.060Z,92.20
2024-01-28T03:37:42.230Z,92.10
2024-01-28T03:40:10.988Z,92.20
2024-01-28T03:42:39.160Z,92.30
2024-01-28T03:45:10.500Z,92.40
2024-01-28T03:47:38.990Z,92.30
2024-01-28T03:50:07.967Z,92.00
2024-01-28T03:52:38.558Z,92.10
2024-01-28T03:55:07.334Z,92.00
2024-01-28T03:57:35.424Z,92.10
2024-01-28T04:00:04.666Z,92.10
2024-01-28T04:02:33.004Z,92.30
2024-01-28T04:05:01.439Z,92.30
2024-01-28T04:07:29.766Z,92.40
2024-01-28T04:09:58.343Z,92.30
2024-01-28T04:12:26.500Z,92.50
2024-01-28T04:14:54.637Z,92.30
2024-01-28T04:17:22.780Z,92.50
2024-01-28T04:19:51.139Z,92.40
2024-01-28T04:22:19.343Z,92.50
2024-01-28T04:24:47.756Z,92.30
2024-01-28T04:27:17.339Z,92.30
2024-01-28T04:29:45.457Z,92.30
2024-01-28T04:32:15.542Z,92.20
2024-01-28T04:34:43.868Z,92.10
2024-01-28T04:37:12.392Z,91.90
2024-01-28T04:39:40.513Z,92.00
2024-01-28T04:42:09.042Z,92.10
2024-01-28T04:44:38.643Z,92.20
2024-01-28T04:47:07.248Z,92.20
2024-01-28T04:49:35.448Z,92.00
2024-01-28T04:52:03.628Z,92.20
2024-01-28T04:54:31.823Z,92.30
2024-01-28T04:57:02.247Z,92.30
2024-01-28T04:59:30.338Z,92.40
2024-01-28T05:02:00.065Z,92.40
2024-01-28T05:04:28.353Z,92.40
2024-01-28T05:06:56.623Z,92.30
2024-01-28T05:09:24.757Z,92.10
2024-01-28T05:11:52.859Z,91.90
2024-01-28T05:14:21.267Z,92.00
2024-01-28T05:16:49.911Z,91.90
2024-01-28T05:19:19.522Z,92.30
2024-01-28T05:21:47.805Z,92.30
2024-01-28T05:24:16.388Z,92.40
2024-01-28T05:26:44.700Z,92.40
2024-01-28T05:29:12.869Z,92.50
2024-01-28T05:31:40.924Z,92.50
2024-01-28T05:34:09.070Z,92.50
2024-01-28T05:36:38.655Z,92.40
2024-01-28T05:39:06.809Z,92.60
2024-01-28T05:41:34.985Z,92.60
2024-01-28T05:44:03.572Z,92.60
2024-01-28T05:46:31.721Z,92.70
2024-01-28T05:48:59.934Z,92.70
2024-01-28T05:51:28.408Z,92.60
2024-01-28T05:53:58.083Z,92.40
2024-01-28T05:56:26.418Z,92.40
2024-01-28T05:58:54.524Z,92.40
2024-01-28T06:01:22.660Z,92.40
2024-01-28T06:03:51.196Z,92.50
2024-01-28T06:06:19.473Z,92.50
2024-01-28T06:08:47.635Z,92.50
2024-01-28T06:11:17.056Z,92.50
2024-01-28T06:13:45.170Z,92.30
2024-01-28T06:16:13.313Z,92.20
2024-01-28T06:18:45.034Z,92.00
2024-01-28T06:21:14.375Z,92.10
2024-01-28T06:23:45.599Z,91.90
2024-01-28T06:26:13.661Z,91.80
2024-01-28T06:28:44.040Z,91.70
2024-01-28T06:31:13.049Z,91.80
2024-01-28T06:33:41.203Z,91.70
2024-01-28T06:36:09.596Z,91.40
2024-01-28T06:38:37.780Z,91.60
2024-01-28T06:41:05.964Z,91.50
2024-01-28T06:43:34.289Z,91.70
2024-01-28T06:46:03.708Z,91.40
2024-01-28T06:48:32.649Z,91.40
2024-01-28T06:51:00.837Z,91.40
2024-01-28T06:53:29.074Z,91.40
2024-01-28T06:55:57.189Z,91.30
2024-01-28T06:58:25.278Z,91.30
2024-01-28T07:00:53.416Z,91.10
2024-01-28T07:03:23.013Z,91.10
2024-01-28T07:05:53.748Z,91.10
2024-01-28T07:08:21.880Z,90.90
2024-01-28T07:10:49.961Z,90.70
2024-01-28T07:13:18.350Z,91.00
2024-01-28T07:15:46.475Z,91.10
2024-01-28T07:18:15.122Z,90.90
2024-01-28T07:20:44.639Z,90.80
2024-01-28T07:23:12.715Z,90.70
2024-01-28T07:25:40.756Z,90.60
2024-01-28T07:28:08.882Z,90.40
2024-01-28T07:30:36.979Z,90.30
2024-01-28T07:33:09.232Z,90.40
2024-01-28T07:35:37.782Z,90.40
2024-01-28T07:38:07.523Z,90.20
2024-01-28T07:40:35.734Z,90.20
2024-01-28T07:43:04.641Z,90.10
2024-01-28T07:45:37.156Z,90.00
2024-01-28T07:48:05.717Z,89.80
2024-01-28T07:50:33.867Z,89.50
2024-01-28T07:53:02.132Z,89.30
2024-01-28T07:55:31.689Z,89.20
2024-01-28T07:58:00.071Z,89.30
2024-01-28T08:00:29.295Z,89.40
2024-01-28T08:02:57.629Z,89.20
2024-01-28T08:05:26.414Z,89.20
2024-01-28T08:07:54.618Z,89.20
2024-01-28T08:10:25.138Z,89.10
2024-01-28T08:12:55.159Z,89.00
2024-01-28T08:15:23.309Z,88.80
2024-01-28T08:17:52.470Z,88.60
2024-01-28T08:20:20.594Z,88.30
2024-01-28T08:22:48.734Z,88.30
2024-01-28T08:25:16.983Z,87.90
2024-01-28T08:27:45.834Z,88.10
2024-01-28T08:30:16.451Z,87.60
2024-01-28T08:32:44.571Z,87.60
2024-01-28T08:35:13.340Z,87.60
2024-01-28T08:37:41.453Z,87.40
2024-01-28T08:40:10.125Z,87.40
2024-01-28T08:42:38.421Z,87.70
2024-01-28T08:45:07.113Z,87.70
2024-01-28T08:47:37.016Z,87.60
2024-01-28T08:50:05.494Z,87.60
2024-01-28T08:52:33.811Z,87.50
2024-01-28T08:55:01.895Z,87.60
2024-01-28T08:57:30.055Z,87.20
2024-01-28T08:59:58.213Z,86.70
2024-01-28T09:02:26.299Z,86.40
2024-01-28T09:04:55.798Z,86.10
2024-01-28T09:07:23.903Z,86.20
2024-01-28T09:09:52.125Z,86.10
2024-01-28T09:12:20.265Z,85.70
2024-01-28T09:14:48.342Z,85.40
2024-01-28T09:17:19.983Z,84.90
2024-01-28T09:19:48.294Z,85.00
2024-01-28T09:22:17.748Z,84.80
2024-01-28T09:24:45.843Z,84.00
2024-01-28T09:27:13.887Z,83.90
2024-01-28T09:29:41.983Z,83.20
2024-01-28T09:32:10.455Z,82.70
2024-01-28T09:34:38.868Z,82.60
2024-01-28T09:37:08.481Z,82.40
2024-01-28T09:39:38.084Z,82.20
2024-01-28T09:42:11.196Z,81.90
2024-01-28T09:44:39.456Z,81.80
2024-01-28T09:47:07.603Z,81.70
2024-01-28T09:49:40.917Z,81.20
2024-01-28T09:52:10.152Z,80.50
2024-01-28T09:54:40.200Z,80.70
2024-01-28T09:57:10.111Z,80.40
2024-01-28T09:59:38.468Z,80.20
2024-01-28T10:02:06.978Z,79.50
2024-01-28T10:04:36.027Z,78.70
2024-01-28T10:07:04.611Z,78.70
2024-01-28T10:09:32.963Z,78.20
2024-01-28T10:12:03.338Z,77.70
2024-01-28T10:14:31.755Z,77.70
2024-01-28T10:16:59.948Z,76.50
2024-01-28T10:19:28.306Z,76.10
2024-01-28T10:21:57.171Z,76.00
2024-01-28T10:24:25.300Z,76.00
2024-01-28T10:26:53.365Z,75.40
2024-01-28T10:29:24.543Z,75.10
2024-01-28T10:31:52.830Z,74.80
2024-01-28T10:34:22.029Z,73.50
2024-01-28T10:36:50.762Z,73.80
2024-01-28T10:39:19.539Z,72.80
2024-01-28T10:41:49.359Z,70.80
2024-01-28T10:44:17.941Z,70.50
2024-01-28T10:46:48.981Z,69.30
2024-01-28T10:49:19.834Z,69.00
2024-01-28T10:51:48.151Z,69.50
2024-01-28T10:54:16.337Z,67.50
2024-01-28T10:56:45.487Z,67.40
2024-01-28T10:59:13.976Z,67.40
2024-01-28T11:01:42.385Z,65.60
2024-01-28T11:04:12.016Z,64.60
2024-01-28T11:06:42.461Z,64.20
2024-01-28T11:09:10.611Z,64.90
2024-01-28T11:11:39.270Z,64.70
2024-01-28T11:14:09.223Z,65.60
2024-01-28T11:16:38.306Z,65.40
2024-01-28T11:19:07.836Z,65.30
2024-01-28T11:21:39.405Z,66.60
2024-01-28T11:24:08.194Z,66.50
2024-01-28T11:26:38.603Z,66.60
2024-01-28T11:29:08.227Z,66.00
2024-01-28T11:31:37.998Z,64.80
2024-01-28T11:34:10.254Z,65.80
2024-01-28T11:36:40.430Z,65.50
2024-01-28T11:39:13.364Z,65.30
2024-01-28T11:41:43.842Z,65.40
2024-01-28T11:44:11.954Z,66.20
2024-01-28T11:46:40.532Z,65.00
2024-01-28T11:49:09.533Z,63.50
2024-01-28T11:51:37.765Z,63.80
2024-01-28T11:54:07.254Z,62.90
2024-01-28T11:56:35.866Z,62.80
2024-01-28T11:59:04.473Z,63.30
2024-01-28T12:01:33.385Z,62.60
2024-01-28T12:04:01.779Z,61.90
2024-01-28T12:06:31.726Z,60.70
2024-01-28T12:09:01.357Z,61.10
2024-01-28T12:11:32.353Z,60.80
2024-01-28T12:14:03.733Z,61.20
2024-01-28T12:16:33.321Z,60.50
2024-01-28T12:19:01.468Z,60.00
2024-01-28T12:21:29.884Z,59.60
2024-01-28T12:24:00.187Z,59.70
2024-01-28T12:26:27.633Z,59.10
2024-01-28T12:28:57.341Z,59.30
2024-01-28T12:31:25.455Z,59.80
2024-01-28T12:33:53.790Z,59.20
2024-01-28T12:36:22.189Z,59.10
2024-01-28T12:38:50.328Z,59.10
2024-01-28T12:41:19.449Z,59.80
2024-01-28T12:43:52.883Z,59.20
2024-01-28T12:46:23.032Z,59.40
2024-01-28T12:48:51.242Z,58.90
2024-01-28T12:51:20.365Z,59.40
2024-01-28T12:53:52.133Z,58.90
2024-01-28T12:56:20.859Z,58.80
2024-01-28T12:58:49.071Z,58.80
2024-01-28T13:01:18.193Z,58.90
2024-01-28T13:03:48.012Z,59.40
2024-01-28T13:06:16.359Z,59.50
2024-01-28T13:08:44.524Z,59.20
2024-01-28T13:11:12.620Z,59.20
2024-01-28T13:13:42.893Z,59.30
2024-01-28T13:16:11.445Z,59.20
2024-01-28T13:18:41.750Z,59.10
2024-01-28T13:21:11.253Z,59.00
2024-01-28T13:23:39.588Z,59.50
2024-01-28T13:26:07.750Z,59.10
2024-01-28T13:28:35.866Z,58.20
2024-01-28T13:31:03.938Z,58.90
2024-01-28T13:33:32.281Z,58.30
2024-01-28T13:36:00.637Z,58.10
2024-01-28T13:38:30.237Z,58.40
2024-01-28T13:40:58.398Z,59.30
2024-01-28T13:43:26.473Z,58.20
2024-01-28T13:45:54.754Z,58.80
2024-01-28T13:48:23.136Z,58.40
2024-01-28T13:50:51.341Z,58.90
2024-01-28T13:53:19.394Z,58.40
2024-01-28T13:55:48.878Z,57.90
2024-01-28T13:58:16.953Z,58.40
2024-01-28T14:00:45.114Z,57.60
2024-01-28T14:03:13.879Z,57.40
2024-01-28T14:05:43.100Z,58.10
2024-01-28T14:08:11.209Z,57.60
2024-01-28T14:10:39.746Z,58.00
2024-01-28T14:13:09.438Z,58.10
2024-01-28T14:15:39.507Z,57.70
2024-01-28T14:18:07.899Z,57.00
2024-01-28T14:20:36.023Z,57.90
2024-01-28T14:23:04.336Z,57.30
2024-01-28T14:25:32.420Z,57.80
2024-01-28T14:28:00.541Z,58.90
2024-01-28T14:30:30.132Z,57.80
2024-01-28T14:32:58.333Z,57.70
2024-01-28T14:35:26.540Z,57.70
2024-01-28T14:37:54.614Z,58.60
2024-01-28T14:40:22.739Z,57.70
2024-01-28T14:42:52.219Z,57.80
2024-01-28T14:45:20.519Z,57.70
2024-01-28T14:47:50.288Z,58.40
2024-01-28T14:50:18.545Z,58.60
2024-01-28T14:52:46.623Z,58.40
2024-01-28T14:55:14.805Z,59.20
2024-01-28T14:57:42.931Z,58.40
2024-01-28T15:00:11.608Z,59.10
2024-01-28T15:02:39.627Z,59.50
2024-01-28T15:05:09.709Z,59.60
2024-01-28T15:07:37.797Z,58.90
2024-01-28T15:10:07.514Z,59.80
2024-01-28T15:12:35.752Z,59.40
2024-01-28T15:15:03.943Z,60.00
2024-01-28T15:17:32.314Z,60.30
2024-01-28T15:20:00.672Z,60.60
2024-01-28T15:22:30.287Z,60.40
2024-01-28T15:25:00.391Z,60.60
2024-01-28T15:27:29.581Z,60.50
2024-01-28T15:29:57.900Z,61.00
2024-01-28T15:32:26.249Z,61.20
2024-01-28T15:34:54.596Z,61.50
2024-01-28T15:37:22.844Z,62.00
2024-01-28T15:39:52.877Z,62.30
2024-01-28T15:42:21.281Z,62.30
2024-01-28T15:44:49.433Z,62.60
2024-01-28T15:47:17.903Z,63.20
2024-01-28T15:49:46.165Z,63.10
2024-01-28T15:52:15.200Z,63.50
2024-01-28T15:54:43.374Z,63.90
2024-01-28T15:57:13.251Z,63.60
2024-01-28T16:02:15.427Z,64.80
2024-01-28T16:04:43.506Z,64.70
2024-01-28T16:07:12.239Z,64.70
2024-01-28T16:09:45.555Z,64.70
2024-01-28T16:12:21.832Z,65.00
2024-01-28T16:14:50.105Z,65.70
2024-01-28T16:17:19.978Z,66.40
2024-01-28T16:19:48.968Z,66.40
2024-01-28T16:22:17.121Z,67.10
2024-01-28T16:24:45.283Z,67.50
2024-01-28T16:27:13.575Z,67.80
2024-01-28T16:29:46.006Z,68.40
2024-01-28T16:32:14.828Z,68.70
2024-01-28T16:34:43.202Z,69.30
2024-01-28T16:37:11.452Z,69.70
2024-01-28T16:39:39.693Z,69.70
2024-01-28T16:42:07.819Z,70.60
2024-01-28T16:44:36.188Z,72.20
2024-01-28T16:47:06.120Z,72.40
2024-01-28T16:49:34.320Z,72.70
2024-01-28T16:52:02.683Z,73.00
2024-01-28T16:54:31.115Z,73.50
2024-01-28T16:56:59.352Z,74.80
2024-01-28T16:59:27.611Z,75.00
2024-01-28T17:01:56.795Z,75.50
2024-01-28T17:04:26.502Z,75.50
2024-01-28T17:06:54.680Z,75.90
2024-01-28T17:09:22.899Z,76.40
2024-01-28T17:11:51.261Z,76.70
2024-01-28T17:14:19.362Z,76.70
2024-01-28T17:16:48.361Z,76.50
2024-01-28T17:19:17.277Z,76.50
2024-01-28T17:21:46.871Z,76.30
2024-01-28T17:24:14.959Z,75.80
2024-01-28T17:26:44.534Z,75.40
2024-01-28T17:29:12.987Z,75.00
2024-01-28T17:31:41.069Z,75.40
2024-01-28T17:34:09.868Z,75.60
2024-01-28T17:36:38.379Z,75.40
2024-01-28T17:39:08.856Z,75.30
2024-01-28T17:41:37.100Z,75.00
2024-01-28T17:44:05.379Z,74.70
2024-01-28T17:46:34.023Z,73.60
2024-01-28T17:49:04.573Z,73.50
2024-01-28T17:51:33.206Z,73.00
2024-01-28T17:54:01.339Z,72.50
2024-01-28T17:56:31.061Z,72.40
2024-01-28T17:58:59.195Z,72.20
2024-01-28T18:01:28.589Z,72.00
2024-01-28T18:03:56.889Z,71.80
2024-01-28T18:06:25.713Z,72.00
2024-01-28T18:08:53.952Z,71.80
2024-01-28T18:11:22.098Z,72.80
2024-01-28T18:13:51.508Z,72.30
2024-01-28T18:16:19.951Z,72.30
2024-01-28T18:18:49.150Z,72.70
2024-01-28T18:21:17.492Z,73.00
2024-01-28T18:23:45.668Z,73.40
2024-01-28T18:26:13.756Z,73.40
2024-01-28T18:28:41.824Z,73.40
2024-01-28T18:31:11.286Z,73.50
2024-01-28T18:33:39.505Z,73.10
2024-01-28T18:36:10.022Z,73.20
2024-01-28T18:38:38.090Z,72.80
2024-01-28T18:41:09.966Z,72.90
2024-01-28T18:43:38.080Z,72.80
2024-01-28T18:46:06.379Z,72.80
2024-01-28T18:48:36.156Z,72.80
2024-01-28T18:51:05.838Z,72.40
2024-01-28T18:53:34.019Z,71.90
2024-01-28T18:56:02.097Z,71.50
2024-01-28T18:58:30.214Z,71.60
2024-01-28T19:00:59.010Z,72.10
2024-01-28T19:03:27.497Z,71.50
2024-01-28T19:05:57.055Z,71.10
2024-01-28T19:08:25.167Z,70.80
2024-01-28T19:10:53.536Z,70.70
2024-01-28T19:13:21.910Z,69.90
2024-01-28T19:15:50.127Z,69.70
2024-01-28T19:18:20.578Z,69.80
2024-01-28T19:20:48.740Z,69.60
2024-01-28T19:23:18.471Z,68.60
2024-01-28T19:25:46.705Z,68.00
2024-01-28T19:28:14.872Z,67.70
2024-01-28T19:30:42.955Z,67.30
2024-01-28T19:33:11.125Z,67.50
2024-01-28T19:35:43.569Z,66.60
2024-01-28T19:38:11.898Z,66.20
2024-01-28T19:40:42.653Z,66.50
2024-01-28T19:43:10.852Z,66.00
2024-01-28T19:45:39.557Z,65.80
2024-01-28T19:48:08.244Z,66.60
2024-01-28T19:50:36.506Z,66.60
2024-01-28T19:53:04.786Z,68.30
2024-01-28T19:55:32.841Z,70.20
2024-01-28T19:58:02.336Z,71.00
2024-01-28T20:00:31.733Z,70.40
2024-01-28T20:03:00.284Z,70.00
2024-01-28T20:05:28.444Z,68.80
2024-01-28T20:07:56.848Z,68.30
2024-01-28T20:10:25.522Z,68.50
2024-01-28T20:12:55.033Z,68.60
2024-01-28T20:15:24.660Z,69.10
2024-01-28T20:17:53.153Z,68.60
2024-01-28T20:20:22.009Z,68.80
2024-01-28T20:22:50.135Z,68.50
2024-01-28T20:25:18.390Z,69.30
2024-01-28T20:27:46.573Z,70.50
2024-01-28T20:30:14.825Z,70.40
2024-01-28T20:32:44.414Z,71.60
2024-01-28T20:35:14.654Z,71.00
2024-01-28T20:37:42.938Z,72.60
2024-01-28T20:40:11.258Z,72.00
2024-01-28T20:42:46.013Z,71.70
2024-01-28T20:45:15.361Z,72.20
2024-01-28T20:47:44.923Z,71.70
2024-01-28T20:50:13.088Z,72.40
2024-01-28T20:52:41.194Z,72.60
2024-01-28T20:55:09.865Z,70.60
2024-01-28T20:57:38.128Z,71.60
2024-01-28T21:00:07.081Z,69.60
2024-01-28T21:02:35.191Z,69.60
2024-01-28T21:05:05.534Z,71.50
2024-01-28T21:07:33.728Z,70.30
2024-01-28T21:10:01.997Z,70.60
2024-01-28T21:12:31.448Z,69.20
2024-01-28T21:14:59.738Z,69.60
2024-01-28T21:17:32.953Z,68.80
2024-01-28T21:20:01.792Z,70.40
2024-01-28T21:22:31.420Z,71.00
2024-01-28T21:24:59.741Z,69.90
2024-01-28T21:27:28.089Z,70.80
2024-01-28T21:29:56.340Z,69.30
2024-01-28T21:32:25.119Z,69.50
2024-01-28T21:34:54.491Z,69.30
2024-01-28T21:37:22.785Z,69.20
2024-01-28T21:39:52.231Z,69.30
2024-01-28T21:42:20.472Z,68.90
2024-01-28T21:44:48.574Z,70.30
2024-01-28T21:47:16.656Z,69.60
2024-01-28T21:49:45.095Z,71.90
2024-01-28T21:52:13.298Z,70.40
2024-01-28T21:54:41.488Z,68.20
2024-01-28T21:57:11.075Z,67.00
2024-01-28T21:59:39.901Z,69.00
2024-01-28T22:02:08.210Z,68.50
2024-01-28T22:04:36.406Z,69.00
2024-01-28T22:07:04.751Z,70.00
2024-01-28T22:09:32.897Z,71.70
2024-01-28T22:12:03.441Z,71.60
2024-01-28T22:14:34.542Z,71.10
2024-01-28T22:17:02.625Z,71.50
2024-01-28T22:19:30.708Z,73.20
2024-01-28T22:21:58.897Z,71.00
2024-01-28T22:24:27.297Z,70.20
2024-01-28T22:26:55.768Z,71.20
2024-01-28T22:29:23.877Z,71.10
2024-01-28T22:31:53.345Z,73.00
2024-01-28T22:34:23.688Z,73.20
2024-01-28T22:36:52.247Z,71.80
2024-01-28T22:39:20.520Z,71.00
2024-01-28T22:41:48.736Z,72.40
2024-01-28T22:44:16.819Z,72.50
2024-01-28T22:46:44.902Z,72.30
2024-01-28T22:49:14.624Z,72.00
2024-01-28T22:51:42.883Z,72.80
2024-01-28T22:54:11.005Z,74.00
2024-01-28T22:56:39.251Z,74.00
2024-01-28T22:59:07.365Z,74.00
2024-01-28T23:01:35.844Z,73.20
2024-01-28T23:04:04.229Z,73.70
2024-01-28T23:06:33.762Z,73.10
2024-01-28T23:09:01.914Z,73.70
2024-01-28T23:11:29.989Z,73.80
2024-01-28T23:13:58.296Z,75.00
2024-01-28T23:16:26.642Z,74.80
2024-01-28T23:18:54.782Z,75.40
2024-01-28T23:21:23.119Z,77.10
2024-01-28T23:23:52.560Z,78.50
2024-01-28T23:26:20.959Z,79.00
2024-01-28T23:28:49.019Z,78.10
2024-01-28T23:31:17.159Z,76.20
2024-01-28T23:33:45.497Z,76.60
2024-01-28T23:36:14.060Z,77.60
2024-01-28T23:38:45.209Z,76.80
2024-01-28T23:41:14.911Z,76.70
2024-01-28T23:43:43.000Z,77.70
2024-01-28T23:46:11.112Z,77.90
2024-01-28T23:48:39.641Z,78.10
2024-01-28T23:51:08.719Z,78.70
2024-01-28T23:53:36.837Z,79.30
2024-01-28T23:56:05.377Z,78.90
2024-01-28T23:58:34.817Z,79.20
